sensor_id;sensor_type;location;lat;lon;timestamp;pressure;altitude;pressure_sealevel;temperature;humidity
23176;BME280;19910;42.652;23.332;2023-02-20T00:01:55;94940.03;;;10.13;64.69
23176;BME280;19910;42.652;23.332;2023-02-20T00:04:22;94953.41;;;10.10;64.76
23176;BME280;19910;42.652;23.332;2023-02-20T00:06:49;94954.03;;;10.07;64.82
23176;BME280;19910;42.652;23.332;2023-02-20T00:09:16;94950.66;;;10.01;65.32
23176;BME280;19910;42.652;23.332;2023-02-20T00:11:42;94952.44;;;9.97;65.66
23176;BME280;19910;42.652;23.332;2023-02-20T00:14:11;94942.56;;;10.01;65.93
23176;BME280;19910;42.652;23.332;2023-02-20T00:16:38;94946.38;;;9.91;65.64
23176;BME280;19910;42.652;23.332;2023-02-20T00:19:06;94939.34;;;9.90;66.04
23176;BME280;19910;42.652;23.332;2023-02-20T00:21:33;94939.97;;;9.87;66.47
23176;BME280;19910;42.652;23.332;2023-02-20T00:23:59;94940.59;;;9.84;66.67
23176;BME280;19910;42.652;23.332;2023-02-20T00:26:26;94943.78;;;9.86;66.78
23176;BME280;19910;42.652;23.332;2023-02-20T00:28:53;94936.63;;;9.82;66.96
23176;BME280;19910;42.652;23.332;2023-02-20T00:31:21;94935.97;;;9.76;67.22
23176;BME280;19910;42.652;23.332;2023-02-20T00:33:48;94942.97;;;9.69;67.41
23176;BME280;19910;42.652;23.332;2023-02-20T00:36:16;94938.97;;;9.66;68.04
23176;BME280;19910;42.652;23.332;2023-02-20T00:38:43;94941.81;;;9.61;68.24
23176;BME280;19910;42.652;23.332;2023-02-20T00:41:11;94929.41;;;9.60;68.51
23176;BME280;19910;42.652;23.332;2023-02-20T00:43:39;94939.28;;;9.56;68.30
23176;BME280;19910;42.652;23.332;2023-02-20T00:46:09;94928.47;;;9.56;68.30
23176;BME280;19910;42.652;23.332;2023-02-20T00:48:37;94927.97;;;9.54;68.06
23176;BME280;19910;42.652;23.332;2023-02-20T00:51:04;94934.19;;;9.63;67.88
23176;BME280;19910;42.652;23.332;2023-02-20T00:53:31;94935.91;;;9.59;67.87
23176;BME280;19910;42.652;23.332;2023-02-20T00:55:58;94951.19;;;9.55;68.01
23176;BME280;19910;42.652;23.332;2023-02-20T00:58:24;94943.66;;;9.43;68.29
23176;BME280;19910;42.652;23.332;2023-02-20T01:00:51;94949.72;;;9.40;68.50
23176;BME280;19910;42.652;23.332;2023-02-20T01:03:18;94962.44;;;9.40;68.61
23176;BME280;19910;42.652;23.332;2023-02-20T01:05:46;94963.75;;;9.51;68.15
23176;BME280;19910;42.652;23.332;2023-02-20T01:08:13;94974.44;;;9.56;67.86
23176;BME280;19910;42.652;23.332;2023-02-20T01:10:40;94978.38;;;9.50;68.27
23176;BME280;19910;42.652;23.332;2023-02-20T01:13:06;94978.50;;;9.45;68.62
23176;BME280;19910;42.652;23.332;2023-02-20T01:15:33;94975.16;;;9.39;69.04
23176;BME280;19910;42.652;23.332;2023-02-20T01:18:00;94974.84;;;9.41;68.72
23176;BME280;19910;42.652;23.332;2023-02-20T01:20:27;94980.38;;;9.36;68.97
23176;BME280;19910;42.652;23.332;2023-02-20T01:22:55;94984.94;;;9.26;69.35
23176;BME280;19910;42.652;23.332;2023-02-20T01:25:22;94981.22;;;9.14;69.84
23176;BME280;19910;42.652;23.332;2023-02-20T01:27:48;94990.47;;;9.21;70.44
23176;BME280;19910;42.652;23.332;2023-02-20T01:30:15;94990.47;;;9.21;70.18
23176;BME280;19910;42.652;23.332;2023-02-20T01:32:43;94999.38;;;9.22;70.11
23176;BME280;19910;42.652;23.332;2023-02-20T01:35:10;94997.50;;;9.31;69.98
23176;BME280;19910;42.652;23.332;2023-02-20T01:37:36;94996.09;;;9.34;70.36
23176;BME280;19910;42.652;23.332;2023-02-20T01:40:06;95000.28;;;9.40;70.06
23176;BME280;19910;42.652;23.332;2023-02-20T01:42:33;94992.66;;;9.42;70.10
23176;BME280;19910;42.652;23.332;2023-02-20T01:45:30;95002.22;;;9.48;70.25
23176;BME280;19910;42.652;23.332;2023-02-20T01:47:58;95006.72;;;9.61;70.05
23176;BME280;19910;42.652;23.332;2023-02-20T01:50:29;95005.44;;;9.58;70.21
23176;BME280;19910;42.652;23.332;2023-02-20T01:52:58;95011.81;;;9.54;70.29
23176;BME280;19910;42.652;23.332;2023-02-20T01:55:30;94993.97;;;9.53;70.66
23176;BME280;19910;42.652;23.332;2023-02-20T01:58:00;95009.22;;;9.49;71.27
23176;BME280;19910;42.652;23.332;2023-02-20T02:00:28;95009.84;;;9.46;71.00
23176;BME280;19910;42.652;23.332;2023-02-20T02:02:58;95020.50;;;9.42;71.79
23176;BME280;19910;42.652;23.332;2023-02-20T02:05:27;95031.75;;;9.36;71.47
23176;BME280;19910;42.652;23.332;2023-02-20T02:07:55;95018.34;;;9.31;71.56
23176;BME280;19910;42.652;23.332;2023-02-20T02:10:25;95019.13;;;9.31;72.14
23176;BME280;19910;42.652;23.332;2023-02-20T02:12:57;95024.94;;;9.16;72.50
23176;BME280;19910;42.652;23.332;2023-02-20T02:15:24;95034.97;;;9.15;71.52
23176;BME280;19910;42.652;23.332;2023-02-20T02:21:31;95031.53;;;9.01;71.09
23176;BME280;19910;42.652;23.332;2023-02-20T02:24:32;95025.25;;;8.92;71.35
23176;BME280;19910;42.652;23.332;2023-02-20T02:27:15;95020.53;;;8.98;71.56
23176;BME280;19910;42.652;23.332;2023-02-20T02:30:07;95019.34;;;8.90;71.30
23176;BME280;19910;42.652;23.332;2023-02-20T02:32:55;95027.59;;;8.85;71.13
23176;BME280;19910;42.652;23.332;2023-02-20T02:36:15;95042.44;;;8.74;71.29
23176;BME280;19910;42.652;23.332;2023-02-20T02:38:49;95039.66;;;8.65;71.69
23176;BME280;19910;42.652;23.332;2023-02-20T02:41:21;95047.91;;;8.60;71.59
23176;BME280;19910;42.652;23.332;2023-02-20T02:43:56;95040.69;;;8.55;71.98
23176;BME280;19910;42.652;23.332;2023-02-20T02:46:27;95042.72;;;8.36;72.35
23176;BME280;19910;42.652;23.332;2023-02-20T02:49:02;95041.13;;;8.35;72.11
23176;BME280;19910;42.652;23.332;2023-02-20T02:51:36;95042.31;;;8.29;71.89
23176;BME280;19910;42.652;23.332;2023-02-20T02:54:09;95049.22;;;8.35;71.89
23176;BME280;19910;42.652;23.332;2023-02-20T02:56:38;95047.97;;;8.33;71.83
23176;BME280;19910;42.652;23.332;2023-02-20T02:59:07;95028.53;;;8.31;71.87
23176;BME280;19910;42.652;23.332;2023-02-20T03:01:38;95037.16;;;8.33;72.27
23176;BME280;19910;42.652;23.332;2023-02-20T03:04:11;95038.03;;;8.28;71.63
23176;BME280;19910;42.652;23.332;2023-02-20T03:06:42;95044.53;;;8.27;71.54
23176;BME280;19910;42.652;23.332;2023-02-20T03:09:13;95043.66;;;8.32;71.43
23176;BME280;19910;42.652;23.332;2023-02-20T03:11:44;95055.13;;;8.37;71.29
23176;BME280;19910;42.652;23.332;2023-02-20T03:14:16;95064.53;;;8.40;71.44
23176;BME280;19910;42.652;23.332;2023-02-20T03:17:07;95052.13;;;8.39;71.10
23176;BME280;19910;42.652;23.332;2023-02-20T03:19:37;95076.63;;;8.42;71.14
23176;BME280;19910;42.652;23.332;2023-02-20T03:22:11;95068.22;;;8.30;71.30
23176;BME280;19910;42.652;23.332;2023-02-20T03:24:40;95084.31;;;8.35;70.88
23176;BME280;19910;42.652;23.332;2023-02-20T03:27:23;95079.72;;;8.36;71.19
23176;BME280;19910;42.652;23.332;2023-02-20T03:29:53;95079.31;;;8.15;71.66
23176;BME280;19910;42.652;23.332;2023-02-20T03:32:24;95105.81;;;8.13;71.87
23176;BME280;19910;42.652;23.332;2023-02-20T03:35:10;95106.31;;;8.15;71.83
23176;BME280;19910;42.652;23.332;2023-02-20T03:37:59;95123.09;;;8.12;71.76
23176;BME280;19910;42.652;23.332;2023-02-20T03:40:45;95119.28;;;8.13;72.03
23176;BME280;19910;42.652;23.332;2023-02-20T03:43:30;95116.09;;;8.11;71.72
23176;BME280;19910;42.652;23.332;2023-02-20T03:46:00;95094.72;;;8.01;72.18
23176;BME280;19910;42.652;23.332;2023-02-20T03:48:33;95105.50;;;8.01;71.97
23176;BME280;19910;42.652;23.332;2023-02-20T03:51:02;95105.00;;;7.99;72.03
23176;BME280;19910;42.652;23.332;2023-02-20T03:53:31;95110.00;;;7.92;71.84
23176;BME280;19910;42.652;23.332;2023-02-20T03:56:00;95101.41;;;7.90;71.86
23176;BME280;19910;42.652;23.332;2023-02-20T03:58:30;95101.50;;;7.98;71.55
23176;BME280;19910;42.652;23.332;2023-02-20T04:01:01;95120.69;;;7.97;71.69
23176;BME280;19910;42.652;23.332;2023-02-20T04:03:32;95128.88;;;7.92;71.62
23176;BME280;19910;42.652;23.332;2023-02-20T04:06:01;95127.75;;;7.93;71.24
23176;BME280;19910;42.652;23.332;2023-02-20T04:08:35;95118.97;;;7.87;71.51
23176;BME280;19910;42.652;23.332;2023-02-20T04:11:07;95115.28;;;7.97;70.63
23176;BME280;19910;42.652;23.332;2023-02-20T04:13:36;95125.88;;;8.07;70.49
23176;BME280;19910;42.652;23.332;2023-02-20T04:16:05;95121.91;;;8.04;70.47
23176;BME280;19910;42.652;23.332;2023-02-20T04:18:33;95120.69;;;8.24;69.33
23176;BME280;19910;42.652;23.332;2023-02-20T04:21:02;95117.91;;;8.29;69.37
23176;BME280;19910;42.652;23.332;2023-02-20T04:23:35;95122.72;;;8.32;69.39
23176;BME280;19910;42.652;23.332;2023-02-20T04:26:06;95131.91;;;8.31;68.81
23176;BME280;19910;42.652;23.332;2023-02-20T04:28:34;95124.63;;;8.32;69.07
23176;BME280;19910;42.652;23.332;2023-02-20T04:31:01;95138.94;;;8.32;69.43
23176;BME280;19910;42.652;23.332;2023-02-20T04:33:27;95136.88;;;8.24;70.05
23176;BME280;19910;42.652;23.332;2023-02-20T04:35:54;95130.47;;;8.20;70.30
23176;BME280;19910;42.652;23.332;2023-02-20T04:38:22;95128.91;;;8.19;70.56
23176;BME280;19910;42.652;23.332;2023-02-20T04:40:51;95127.38;;;8.13;70.45
23176;BME280;19910;42.652;23.332;2023-02-20T04:43:18;95115.72;;;8.04;70.70
23176;BME280;19910;42.652;23.332;2023-02-20T04:45:45;95109.50;;;8.03;70.17
23176;BME280;19910;42.652;23.332;2023-02-20T04:48:12;95130.66;;;7.96;69.52
23176;BME280;19910;42.652;23.332;2023-02-20T04:50:38;95108.19;;;8.01;69.30
23176;BME280;19910;42.652;23.332;2023-02-20T04:53:06;95116.88;;;7.98;68.75
23176;BME280;19910;42.652;23.332;2023-02-20T04:55:33;95106.31;;;8.01;68.23
23176;BME280;19910;42.652;23.332;2023-02-20T04:58:01;95129.06;;;7.95;68.41
23176;BME280;19910;42.652;23.332;2023-02-20T05:00:28;95152.66;;;7.90;68.24
23176;BME280;19910;42.652;23.332;2023-02-20T05:02:54;95137.06;;;7.87;67.73
23176;BME280;19910;42.652;23.332;2023-02-20T05:05:23;95151.84;;;7.89;67.40
23176;BME280;19910;42.652;23.332;2023-02-20T05:07:53;95153.25;;;7.87;67.17
23176;BME280;19910;42.652;23.332;2023-02-20T05:10:21;95164.72;;;7.78;67.44
23176;BME280;19910;42.652;23.332;2023-02-20T05:12:48;95162.69;;;7.70;67.50
23176;BME280;19910;42.652;23.332;2023-02-20T05:15:16;95164.59;;;7.70;66.85
23176;BME280;19910;42.652;23.332;2023-02-20T05:17:43;95158.59;;;7.73;66.51
23176;BME280;19910;42.652;23.332;2023-02-20T05:20:10;95164.75;;;7.60;66.47
23176;BME280;19910;42.652;23.332;2023-02-20T05:22:37;95160.84;;;7.52;66.68
23176;BME280;19910;42.652;23.332;2023-02-20T05:25:04;95174.13;;;7.48;66.70
23176;BME280;19910;42.652;23.332;2023-02-20T05:27:31;95168.25;;;7.60;66.75
23176;BME280;19910;42.652;23.332;2023-02-20T05:29:59;95174.81;;;7.54;66.99
23176;BME280;19910;42.652;23.332;2023-02-20T05:32:29;95169.34;;;7.59;66.92
23176;BME280;19910;42.652;23.332;2023-02-20T05:34:56;95185.91;;;7.53;67.02
23176;BME280;19910;42.652;23.332;2023-02-20T05:37:25;95185.13;;;7.66;67.28
23176;BME280;19910;42.652;23.332;2023-02-20T05:39:52;95187.63;;;7.95;66.39
23176;BME280;19910;42.652;23.332;2023-02-20T05:42:19;95205.06;;;8.30;65.75
23176;BME280;19910;42.652;23.332;2023-02-20T05:44:47;95209.59;;;8.48;65.33
23176;BME280;19910;42.652;23.332;2023-02-20T05:47:15;95200.22;;;8.73;64.67
23176;BME280;19910;42.652;23.332;2023-02-20T05:49:43;95191.44;;;9.03;63.69
23176;BME280;19910;42.652;23.332;2023-02-20T05:52:11;95197.00;;;9.20;63.41
23176;BME280;19910;42.652;23.332;2023-02-20T05:54:38;95189.47;;;8.95;63.62
23176;BME280;19910;42.652;23.332;2023-02-20T05:57:05;95186.88;;;8.76;64.97
23176;BME280;19910;42.652;23.332;2023-02-20T05:59:32;95202.09;;;8.86;64.73
23176;BME280;19910;42.652;23.332;2023-02-20T06:02:00;95185.94;;;9.08;63.45
23176;BME280;19910;42.652;23.332;2023-02-20T06:04:28;95189.63;;;9.12;62.87
23176;BME280;19910;42.652;23.332;2023-02-20T06:06:56;95191.84;;;9.33;62.16
23176;BME280;19910;42.652;23.332;2023-02-20T06:09:24;95202.31;;;9.48;60.84
23176;BME280;19910;42.652;23.332;2023-02-20T06:11:52;95194.06;;;9.67;59.24
23176;BME280;19910;42.652;23.332;2023-02-20T06:14:21;95196.59;;;9.72;59.54
23176;BME280;19910;42.652;23.332;2023-02-20T06:16:49;95192.56;;;9.60;58.32
23176;BME280;19910;42.652;23.332;2023-02-20T06:19:20;95198.28;;;9.59;58.03
23176;BME280;19910;42.652;23.332;2023-02-20T06:21:47;95193.50;;;9.56;58.59
23176;BME280;19910;42.652;23.332;2023-02-20T06:24:16;95198.41;;;9.54;58.77
23176;BME280;19910;42.652;23.332;2023-02-20T06:26:44;95191.25;;;10.03;57.85
23176;BME280;19910;42.652;23.332;2023-02-20T06:29:13;95184.69;;;10.57;56.23
23176;BME280;19910;42.652;23.332;2023-02-20T06:31:40;95204.69;;;10.87;55.04
23176;BME280;19910;42.652;23.332;2023-02-20T06:34:08;95203.81;;;11.17;54.33
23176;BME280;19910;42.652;23.332;2023-02-20T06:36:37;95216.16;;;10.84;55.08
23176;BME280;19910;42.652;23.332;2023-02-20T06:39:05;95221.09;;;10.82;54.58
23176;BME280;19910;42.652;23.332;2023-02-20T06:41:33;95202.88;;;11.65;52.94
23176;BME280;19910;42.652;23.332;2023-02-20T06:44:00;95218.81;;;11.40;54.64
23176;BME280;19910;42.652;23.332;2023-02-20T06:46:27;95213.53;;;10.61;55.54
23176;BME280;19910;42.652;23.332;2023-02-20T06:48:55;95226.44;;;10.03;55.18
23176;BME280;19910;42.652;23.332;2023-02-20T06:51:24;95226.44;;;10.03;56.62
23176;BME280;19910;42.652;23.332;2023-02-20T06:53:51;95247.47;;;10.06;56.32
23176;BME280;19910;42.652;23.332;2023-02-20T06:56:19;95241.34;;;9.69;57.58
23176;BME280;19910;42.652;23.332;2023-02-20T06:58:49;95240.09;;;9.53;58.24
23176;BME280;19910;42.652;23.332;2023-02-20T07:01:17;95251.25;;;9.38;58.50
23176;BME280;19910;42.652;23.332;2023-02-20T07:03:45;95244.13;;;9.42;58.25
23176;BME280;19910;42.652;23.332;2023-02-20T07:06:13;95238.44;;;9.66;57.89
23176;BME280;19910;42.652;23.332;2023-02-20T07:08:39;95247.84;;;9.90;57.19
23176;BME280;19910;42.652;23.332;2023-02-20T07:11:06;95241.53;;;9.95;56.27
23176;BME280;19910;42.652;23.332;2023-02-20T07:13:34;95228.91;;;9.68;55.78
23176;BME280;19910;42.652;23.332;2023-02-20T07:16:02;95249.00;;;9.98;56.37
23176;BME280;19910;42.652;23.332;2023-02-20T07:18:29;95238.63;;;9.91;56.12
23176;BME280;19910;42.652;23.332;2023-02-20T07:20:56;95242.69;;;9.80;55.98
23176;BME280;19910;42.652;23.332;2023-02-20T07:23:23;95246.00;;;9.99;54.67
23176;BME280;19910;42.652;23.332;2023-02-20T07:25:50;95222.50;;;9.86;52.85
23176;BME280;19910;42.652;23.332;2023-02-20T07:28:18;95254.34;;;10.12;52.91
23176;BME280;19910;42.652;23.332;2023-02-20T07:30:45;95250.06;;;9.66;53.07
23176;BME280;19910;42.652;23.332;2023-02-20T07:33:15;95251.28;;;9.82;53.28
23176;BME280;19910;42.652;23.332;2023-02-20T07:35:42;95261.25;;;9.95;52.32
23176;BME280;19910;42.652;23.332;2023-02-20T07:38:09;95264.19;;;9.63;52.88
23176;BME280;19910;42.652;23.332;2023-02-20T07:40:35;95263.09;;;9.64;52.34
23176;BME280;19910;42.652;23.332;2023-02-20T07:43:02;95261.03;;;9.83;51.71
23176;BME280;19910;42.652;23.332;2023-02-20T07:45:29;95264.94;;;9.77;52.54
23176;BME280;19910;42.652;23.332;2023-02-20T07:47:56;95276.75;;;9.81;51.85
23176;BME280;19910;42.652;23.332;2023-02-20T07:50:24;95272.84;;;9.74;51.90
23176;BME280;19910;42.652;23.332;2023-02-20T07:52:51;95274.63;;;9.56;51.49
23176;BME280;19910;42.652;23.332;2023-02-20T07:55:18;95276.56;;;9.42;51.82
23176;BME280;19910;42.652;23.332;2023-02-20T07:57:46;95282.94;;;9.46;51.31
23176;BME280;19910;42.652;23.332;2023-02-20T08:00:16;95282.00;;;9.64;50.91
23176;BME280;19910;42.652;23.332;2023-02-20T08:02:43;95270.47;;;9.72;51.49
23176;BME280;19910;42.652;23.332;2023-02-20T08:05:10;95275.84;;;9.50;50.97
23176;BME280;19910;42.652;23.332;2023-02-20T08:07:43;95293.56;;;9.56;51.19
23176;BME280;19910;42.652;23.332;2023-02-20T08:10:10;95274.91;;;9.68;50.75
23176;BME280;19910;42.652;23.332;2023-02-20T08:12:37;95260.69;;;9.85;49.17
23176;BME280;19910;42.652;23.332;2023-02-20T08:15:04;95285.94;;;9.94;49.88
23176;BME280;19910;42.652;23.332;2023-02-20T08:17:31;95265.94;;;10.26;48.74
23176;BME280;19910;42.652;23.332;2023-02-20T08:19:58;95289.50;;;10.25;49.39
23176;BME280;19910;42.652;23.332;2023-02-20T08:22:24;95277.59;;;10.13;49.58
23176;BME280;19910;42.652;23.332;2023-02-20T08:24:53;95289.34;;;9.86;49.66
23176;BME280;19910;42.652;23.332;2023-02-20T08:27:19;95280.81;;;9.92;49.84
23176;BME280;19910;42.652;23.332;2023-02-20T08:29:46;95285.63;;;9.95;50.08
23176;BME280;19910;42.652;23.332;2023-02-20T08:32:13;95282.28;;;9.98;49.70
23176;BME280;19910;42.652;23.332;2023-02-20T08:34:39;95279.41;;;10.17;49.68
23176;BME280;19910;42.652;23.332;2023-02-20T08:37:06;95280.44;;;10.08;50.14
23176;BME280;19910;42.652;23.332;2023-02-20T08:39:34;95290.28;;;10.04;50.15
23176;BME280;19910;42.652;23.332;2023-02-20T08:42:02;95278.47;;;9.99;50.29
23176;BME280;19910;42.652;23.332;2023-02-20T08:44:29;95284.25;;;10.07;49.69
23176;BME280;19910;42.652;23.332;2023-02-20T08:46:56;95274.19;;;10.21;49.63
23176;BME280;19910;42.652;23.332;2023-02-20T08:49:23;95289.56;;;10.34;49.79
23176;BME280;19910;42.652;23.332;2023-02-20T08:51:53;95283.28;;;10.03;50.50
23176;BME280;19910;42.652;23.332;2023-02-20T08:54:20;95298.66;;;9.93;49.39
23176;BME280;19910;42.652;23.332;2023-02-20T08:56:46;95287.97;;;10.33;49.85
23176;BME280;19910;42.652;23.332;2023-02-20T08:59:14;95284.88;;;10.04;49.32
23176;BME280;19910;42.652;23.332;2023-02-20T09:01:42;95297.91;;;10.02;49.92
23176;BME280;19910;42.652;23.332;2023-02-20T09:04:09;95290.91;;;10.01;49.90
23176;BME280;19910;42.652;23.332;2023-02-20T09:06:36;95289.03;;;10.23;49.40
23176;BME280;19910;42.652;23.332;2023-02-20T09:09:03;95277.25;;;10.28;49.64
23176;BME280;19910;42.652;23.332;2023-02-20T09:11:30;95265.06;;;10.39;48.86
23176;BME280;19910;42.652;23.332;2023-02-20T09:13:57;95277.50;;;9.95;49.80
23176;BME280;19910;42.652;23.332;2023-02-20T09:16:25;95268.63;;;10.04;50.37
23176;BME280;19910;42.652;23.332;2023-02-20T09:18:52;95269.63;;;10.08;50.08
23176;BME280;19910;42.652;23.332;2023-02-20T09:21:20;95260.16;;;10.19;49.33
23176;BME280;19910;42.652;23.332;2023-02-20T09:23:46;95262.41;;;10.03;49.25
23176;BME280;19910;42.652;23.332;2023-02-20T09:26:13;95243.13;;;10.18;49.28
23176;BME280;19910;42.652;23.332;2023-02-20T09:28:40;95274.91;;;10.35;49.44
23176;BME280;19910;42.652;23.332;2023-02-20T09:31:07;95262.91;;;10.27;50.04
23176;BME280;19910;42.652;23.332;2023-02-20T09:33:35;95262.59;;;10.51;49.30
23176;BME280;19910;42.652;23.332;2023-02-20T09:36:02;95257.22;;;10.68;49.23
23176;BME280;19910;42.652;23.332;2023-02-20T09:38:29;95263.28;;;10.65;48.43
23176;BME280;19910;42.652;23.332;2023-02-20T09:40:57;95276.41;;;10.81;49.26
23176;BME280;19910;42.652;23.332;2023-02-20T09:43:32;95257.50;;;10.89;49.09
23176;BME280;19910;42.652;23.332;2023-02-20T09:46:07;95235.56;;;10.68;49.11
23176;BME280;19910;42.652;23.332;2023-02-20T09:51:29;95258.50;;;10.62;49.21
23176;BME280;19910;42.652;23.332;2023-02-20T09:54:02;95260.78;;;10.78;49.38
23176;BME280;19910;42.652;23.332;2023-02-20T09:56:33;95246.63;;;10.89;48.39
23176;BME280;19910;42.652;23.332;2023-02-20T09:59:05;95278.66;;;10.79;47.96
23176;BME280;19910;42.652;23.332;2023-02-20T10:01:34;95281.22;;;10.84;49.08
23176;BME280;19910;42.652;23.332;2023-02-20T10:04:08;95282.94;;;11.19;47.19
23176;BME280;19910;42.652;23.332;2023-02-20T10:06:36;95287.94;;;10.95;46.29
23176;BME280;19910;42.652;23.332;2023-02-20T10:09:04;95271.53;;;11.00;46.54
23176;BME280;19910;42.652;23.332;2023-02-20T10:11:41;95280.78;;;10.90;46.38
23176;BME280;19910;42.652;23.332;2023-02-20T10:14:29;95272.25;;;10.75;45.32
23176;BME280;19910;42.652;23.332;2023-02-20T10:17:08;95285.00;;;10.74;45.48
23176;BME280;19910;42.652;23.332;2023-02-20T10:19:47;95260.72;;;11.09;45.22
23176;BME280;19910;42.652;23.332;2023-02-20T10:22:19;95257.50;;;10.98;45.60
23176;BME280;19910;42.652;23.332;2023-02-20T10:25:09;95257.00;;;10.96;46.27
23176;BME280;19910;42.652;23.332;2023-02-20T10:27:46;95253.00;;;10.93;44.78
23176;BME280;19910;42.652;23.332;2023-02-20T10:30:22;95238.47;;;10.81;44.40
23176;BME280;19910;42.652;23.332;2023-02-20T10:32:53;95234.09;;;11.02;44.69
23176;BME280;19910;42.652;23.332;2023-02-20T10:35:25;95232.19;;;11.11;43.36
23176;BME280;19910;42.652;23.332;2023-02-20T10:37:57;95238.88;;;11.14;44.38
23176;BME280;19910;42.652;23.332;2023-02-20T10:40:37;95242.38;;;11.06;42.48
23176;BME280;19910;42.652;23.332;2023-02-20T10:43:11;95247.44;;;10.90;43.46
23176;BME280;19910;42.652;23.332;2023-02-20T10:45:49;95235.31;;;10.96;44.07
23176;BME280;19910;42.652;23.332;2023-02-20T10:48:18;95251.66;;;11.22;43.28
23176;BME280;19910;42.652;23.332;2023-02-20T10:50:53;95257.59;;;11.32;43.08
23176;BME280;19910;42.652;23.332;2023-02-20T10:53:28;95233.03;;;11.29;43.22
23176;BME280;19910;42.652;23.332;2023-02-20T10:56:01;95237.03;;;11.40;43.12
23176;BME280;19910;42.652;23.332;2023-02-20T10:58:36;95225.22;;;11.70;42.55
23176;BME280;19910;42.652;23.332;2023-02-20T11:01:06;95209.91;;;11.66;43.13
23176;BME280;19910;42.652;23.332;2023-02-20T11:03:39;95213.84;;;11.25;42.70
23176;BME280;19910;42.652;23.332;2023-02-20T11:06:12;95216.28;;;11.53;43.96
23176;BME280;19910;42.652;23.332;2023-02-20T11:08:39;95192.66;;;11.62;43.57
23176;BME280;19910;42.652;23.332;2023-02-20T11:11:20;95205.47;;;11.87;43.60
23176;BME280;19910;42.652;23.332;2023-02-20T11:13:47;95189.63;;;11.89;43.98
23176;BME280;19910;42.652;23.332;2023-02-20T11:16:20;95177.03;;;11.42;43.82
23176;BME280;19910;42.652;23.332;2023-02-20T11:18:57;95184.34;;;11.67;43.84
23176;BME280;19910;42.652;23.332;2023-02-20T11:21:37;95190.09;;;12.00;43.48
23176;BME280;19910;42.652;23.332;2023-02-20T11:24:32;95175.59;;;11.87;43.80
23176;BME280;19910;42.652;23.332;2023-02-20T11:27:05;95153.19;;;12.07;43.19
23176;BME280;19910;42.652;23.332;2023-02-20T11:29:46;95191.69;;;11.92;42.99
23176;BME280;19910;42.652;23.332;2023-02-20T11:32:20;95191.88;;;11.87;43.00
23176;BME280;19910;42.652;23.332;2023-02-20T11:35:03;95184.53;;;11.79;44.20
23176;BME280;19910;42.652;23.332;2023-02-20T11:37:31;95183.75;;;11.87;43.76
23176;BME280;19910;42.652;23.332;2023-02-20T11:39:59;95188.66;;;12.02;43.95
23176;BME280;19910;42.652;23.332;2023-02-20T11:42:31;95197.00;;;11.89;44.30
23176;BME280;19910;42.652;23.332;2023-02-20T11:45:13;95204.50;;;11.83;43.77
23176;BME280;19910;42.652;23.332;2023-02-20T11:47:40;95178.91;;;12.01;43.92
23176;BME280;19910;42.652;23.332;2023-02-20T11:50:09;95204.66;;;11.87;43.78
23176;BME280;19910;42.652;23.332;2023-02-20T11:52:54;95195.03;;;12.15;43.97
23176;BME280;19910;42.652;23.332;2023-02-20T11:55:23;95193.91;;;12.07;43.36
23176;BME280;19910;42.652;23.332;2023-02-20T11:57:50;95202.06;;;12.16;43.71
23176;BME280;19910;42.652;23.332;2023-02-20T12:00:19;95194.09;;;11.68;43.83
23176;BME280;19910;42.652;23.332;2023-02-20T12:02:52;95184.84;;;11.86;42.91
23176;BME280;19910;42.652;23.332;2023-02-20T12:05:19;95172.81;;;12.04;43.28
23176;BME280;19910;42.652;23.332;2023-02-20T12:07:57;95182.41;;;12.10;42.61
23176;BME280;19910;42.652;23.332;2023-02-20T12:10:32;95185.63;;;11.95;42.84
23176;BME280;19910;42.652;23.332;2023-02-20T12:13:02;95173.13;;;12.12;42.51
23176;BME280;19910;42.652;23.332;2023-02-20T12:15:29;95157.50;;;12.08;42.03
23176;BME280;19910;42.652;23.332;2023-02-20T12:18:35;95173.19;;;11.86;42.27
23176;BME280;19910;42.652;23.332;2023-02-20T12:21:10;95179.34;;;12.21;42.61
23176;BME280;19910;42.652;23.332;2023-02-20T12:23:48;95186.53;;;12.17;41.75
23176;BME280;19910;42.652;23.332;2023-02-20T12:26:30;95195.50;;;12.08;41.83
23176;BME280;19910;42.652;23.332;2023-02-20T12:29:06;95179.53;;;12.07;42.56
23176;BME280;19910;42.652;23.332;2023-02-20T12:31:46;95193.88;;;12.25;42.37
23176;BME280;19910;42.652;23.332;2023-02-20T12:34:34;95189.53;;;12.41;42.80
23176;BME280;19910;42.652;23.332;2023-02-20T12:37:11;95180.84;;;12.48;41.85
23176;BME280;19910;42.652;23.332;2023-02-20T12:39:50;95201.44;;;12.57;42.07
23176;BME280;19910;42.652;23.332;2023-02-20T12:42:25;95182.22;;;12.24;42.56
23176;BME280;19910;42.652;23.332;2023-02-20T12:47:44;95171.03;;;12.26;42.29
23176;BME280;19910;42.652;23.332;2023-02-20T12:50:24;95180.63;;;12.23;42.83
23176;BME280;19910;42.652;23.332;2023-02-20T12:53:13;95180.13;;;12.30;42.15
23176;BME280;19910;42.652;23.332;2023-02-20T12:55:55;95175.19;;;12.23;42.90
23176;BME280;19910;42.652;23.332;2023-02-20T12:58:36;95170.22;;;12.17;42.81
23176;BME280;19910;42.652;23.332;2023-02-20T13:01:09;95166.66;;;12.42;43.23
23176;BME280;19910;42.652;23.332;2023-02-20T13:03:42;95169.88;;;12.35;42.88
23176;BME280;19910;42.652;23.332;2023-02-20T13:06:10;95173.78;;;12.08;43.98
23176;BME280;19910;42.652;23.332;2023-02-20T13:08:48;95176.63;;;12.21;43.21
23176;BME280;19910;42.652;23.332;2023-02-20T13:11:21;95185.34;;;12.43;42.55
23176;BME280;19910;42.652;23.332;2023-02-20T13:14:02;95187.31;;;12.26;42.62
23176;BME280;19910;42.652;23.332;2023-02-20T13:16:34;95199.16;;;12.21;43.03
23176;BME280;19910;42.652;23.332;2023-02-20T13:19:08;95195.47;;;12.26;43.23
23176;BME280;19910;42.652;23.332;2023-02-20T13:21:39;95182.38;;;12.28;42.51
23176;BME280;19910;42.652;23.332;2023-02-20T13:24:26;95192.13;;;12.20;42.57